NCAR-RAP Real-Time Weather Data

Output produced by METARs form (08 May 2021  16:39 UTC)
found at http://weather.rap.ucar.edu/surface/
 
KILG 081551Z AUTO 28009KT 10SM OVC075 11/04 A2990 RMK AO2 RAB27E41 SLP125 P0000 T01110039 $
KILG 081451Z AUTO 29015KT 10SM BKN037 OVC075 12/04 A2990 RMK AO2 SLP123 T01170039 51005 $
KILG 081351Z AUTO 27012G18KT 10SM FEW080 12/05 A2989 RMK AO2 SLP122 T01220050 $
KILG 081251Z AUTO 28011KT 10SM CLR 10/04 A2990 RMK AO2 SLP123 T01000044 $
KILG 081151Z AUTO 28008KT 10SM CLR 09/05 A2988 RMK AO2 SLP118 70001 T00940050 10094 20067 53012 $
KILG 081051Z AUTO 27007KT 10SM CLR 07/06 A2987 RMK AO2 SLP114 T00720056 $
KILG 080951Z AUTO 28006KT 10SM CLR 07/05 A2984 RMK AO2 SLP104 T00670050 $
KILG 080851Z 29007KT 10SM FEW060 BKN080 08/06 A2984 RMK AO2 SLP106 T00830056 55003 $
KILG 080751Z 29006KT 10SM FEW012 OVC065 09/07 A2984 RMK AO2 SLP105 T00890067 $
KILG 080651Z 29007KT 10SM FEW015 OVC065 09/07 A2985 RMK AO2 SLP108 T00940067 $
KILG 080551Z 29006KT 10SM BKN060 OVC095 09/07 A2986 RMK AO2 SLP109 60001 T00940072 10122 20089 56008 $
KILG 080517Z 32007KT 10SM SCT011 SCT018 OVC095 09/07 A2985 RMK AO2 T00940072 $
KILG 080458Z 30007KT 10SM BKN011 BKN019 OVC095 10/08 A2986 RMK AO2 T01000078 $
KILG 080451Z 27006KT 10SM SCT011 BKN019 OVC095 10/08 A2986 RMK AO2 SLP111 T01000078 401890056 $
KILG 080351Z 30006KT 10SM FEW049 BKN075 OVC100 10/08 A2987 RMK AO2 RAE02 SLP113 P0000 T01000083 $
KILG 080251Z 31005KT 10SM -RA BKN047 OVC060 10/08 A2988 RMK AO2 SLP117 P0001 60001 T01000083 50008 $
KILG 080151Z 28008KT 10SM -RA OVC048 11/08 A2988 RMK AO2 RAB0058 SLP119 P0000 T01060083 $
KILG 080051Z 28011KT 10SM OVC055 12/08 A2987 RMK AO2 SLP113 T01170078